Time;durP1;ratioP1;P1;durP2;ratioP2;P2;SDS_P1;SDS_P2;PMS_P1;PMS_P2;Temp;Humidity;BMP_temperature;BMP_pressure;BME280_temperature;BME280_humidity;BME280_pressure;Samples;Min_cycle;Max_cycle;Signal;HPM_P1;HPM_P2
2022/03/01 00:00:48;;;;;;;16.70;6.47;;;;;;;0.25;97.65;97578.56;5156045;27;20487;-38
2022/03/01 00:03:15;;;;;;;10.50;7.73;;;;;;;0.27;97.64;97583.63;5155908;27;20442;-37
2022/03/01 00:05:42;;;;;;;15.27;8.50;;;;;;;0.29;97.39;97581.69;5156356;27;20448;-37
2022/03/01 00:08:09;;;;;;;14.40;7.67;;;;;;;0.31;97.63;97571.91;5155674;27;20826;-38
2022/03/01 00:10:36;;;;;;;8.60;6.20;;;;;;;0.33;97.51;97570.78;5155963;27;20444;-37
2022/03/01 00:13:04;;;;;;;7.97;5.63;;;;;;;0.35;97.26;97568.84;5155839;27;20449;-38
2022/03/01 00:15:33;;;;;;;11.10;6.63;;;;;;;0.35;97.18;97571.44;5156121;27;20436;-37
2022/03/01 00:18:00;;;;;;;14.03;7.60;;;;;;;0.38;97.18;97572.94;5155768;27;20432;-37
2022/03/01 00:20:27;;;;;;;12.80;6.23;;;;;;;0.37;97.06;97561.66;5155891;27;20471;-37
2022/03/01 00:22:54;;;;;;;11.37;7.03;;;;;;;0.38;96.92;97568.50;5155693;27;20916;-37
2022/03/01 00:25:21;;;;;;;14.30;7.30;;;;;;;0.38;97.01;97563.28;5155642;27;20439;-37
2022/03/01 00:27:49;;;;;;;11.17;6.30;;;;;;;0.42;96.94;97566.44;5155946;27;20553;-37
2022/03/01 00:30:16;;;;;;;21.63;11.30;;;;;;;0.41;96.81;97556.97;5155831;27;20775;-38
2022/03/01 00:32:44;;;;;;;19.80;10.40;;;;;;;0.42;96.83;97560.38;5155490;27;20955;-37
2022/03/01 00:35:11;;;;;;;16.67;9.30;;;;;;;0.43;96.78;97551.56;5155539;27;20456;-37
2022/03/01 00:37:39;;;;;;;16.10;8.93;;;;;;;0.44;96.44;97550.59;5155747;27;20448;-38
2022/03/01 00:40:07;;;;;;;18.37;8.50;;;;;;;0.45;96.18;97557.47;5156536;27;20444;-37
2022/03/01 00:42:34;;;;;;;12.60;6.80;;;;;;;0.46;96.02;97549.47;5155297;27;20490;-37
2022/03/01 00:45:02;;;;;;;16.77;8.43;;;;;;;0.45;96.07;97547.00;5155313;27;20433;-37
2022/03/01 00:47:29;;;;;;;15.70;8.07;;;;;;;0.47;96.27;97551.09;5155351;27;20440;-37
2022/03/01 00:49:58;;;;;;;11.67;5.60;;;;;;;0.47;96.10;97545.06;5155285;27;20446;-37
2022/03/01 00:52:26;;;;;;;17.90;8.20;;;;;;;0.48;96.10;97541.50;5155496;27;20979;-36
2022/03/01 00:54:53;;;;;;;13.53;7.47;;;;;;;0.49;95.85;97540.50;5154989;27;20446;-37
2022/03/01 00:57:20;;;;;;;15.17;8.47;;;;;;;0.49;95.80;97532.66;5155429;27;20444;-36
2022/03/01 00:59:47;;;;;;;12.43;8.60;;;;;;;0.49;95.67;97535.28;5155436;27;20795;-36
2022/03/01 01:02:15;;;;;;;18.73;9.80;;;;;;;0.50;95.85;97535.13;5155300;27;20484;-37
2022/03/01 01:04:42;;;;;;;11.17;6.07;;;;;;;0.49;95.85;97524.81;5156022;27;20444;-36
2022/03/01 01:07:11;;;;;;;6.17;5.57;;;;;;;0.48;95.66;97531.84;5155246;27;20964;-37
2022/03/01 01:09:38;;;;;;;7.20;6.03;;;;;;;0.49;95.06;97532.66;5154918;27;20479;-36
2022/03/01 01:12:06;;;;;;;10.33;6.20;;;;;;;0.50;95.28;97531.72;5154963;27;20448;-37
2022/03/01 01:14:33;;;;;;;14.93;7.00;;;;;;;0.50;95.40;97534.31;5155034;27;20923;-37
2022/03/01 01:17:00;;;;;;;31.20;17.87;;;;;;;0.48;95.58;97528.41;5155256;27;20436;-36
2022/03/01 01:19:28;;;;;;;28.50;15.90;;;;;;;0.48;95.66;97526.63;5154976;27;20435;-37
2022/03/01 01:24:41;;;;;;;25.03;13.80;;;;;;;0.49;95.93;97537.88;5154972;27;20553;-38
2022/03/01 01:27:08;;;;;;;12.87;8.00;;;;;;;0.44;96.06;97529.72;5155166;27;20802;-36
2022/03/01 01:29:35;;;;;;;16.17;8.07;;;;;;;0.39;95.88;97523.16;5155046;27;20789;-36
2022/03/01 01:32:02;;;;;;;13.67;7.27;;;;;;;0.41;96.00;97523.00;5154830;27;20919;-36
2022/03/01 01:34:30;;;;;;;20.27;11.07;;;;;;;0.39;95.97;97520.53;5155121;27;20485;-36
2022/03/01 01:36:57;;;;;;;16.33;10.30;;;;;;;0.38;96.02;97521.50;5154732;27;20447;-36
2022/03/01 01:39:24;;;;;;;15.73;8.17;;;;;;;0.40;96.17;97524.78;5155116;27;20440;-36
2022/03/01 01:41:53;;;;;;;21.60;9.43;;;;;;;0.40;96.40;97516.94;5154605;27;20480;-36
2022/03/01 01:44:20;;;;;;;18.87;10.13;;;;;;;0.40;96.45;97519.53;5154655;27;20451;-36
2022/03/01 01:46:48;;;;;;;15.10;8.90;;;;;;;0.43;96.55;97526.28;5154670;27;20530;-37
2022/03/01 01:49:15;;;;;;;24.93;13.67;;;;;;;0.45;96.36;97523.50;5154682;27;20432;-37
2022/03/01 01:51:42;;;;;;;34.03;19.30;;;;;;;0.45;96.55;97513.03;5154665;27;20447;-36
2022/03/01 01:54:10;;;;;;;41.13;19.63;;;;;;;0.44;96.69;97509.63;5154882;27;20531;-36
2022/03/01 01:56:37;;;;;;;31.70;14.90;;;;;;;0.44;96.75;97514.84;5154593;27;20441;-36
2022/03/01 01:59:05;;;;;;;31.67;15.87;;;;;;;0.44;96.54;97519.25;5154804;27;20459;-37
2022/03/01 02:01:33;;;;;;;33.90;16.87;;;;;;;0.45;96.84;97510.44;5155240;27;20834;-37
2022/03/01 02:04:00;;;;;;;33.43;16.50;;;;;;;0.46;96.87;97506.84;5154800;27;20547;-36
2022/03/01 02:06:28;;;;;;;31.33;14.00;;;;;;;0.43;96.80;97502.75;5157233;27;20440;-37
2022/03/01 02:08:55;;;;;;;29.03;11.90;;;;;;;0.43;96.84;97512.38;5158144;27;20825;-37
2022/03/01 02:11:22;;;;;;;18.07;10.23;;;;;;;0.42;96.60;97498.50;5158497;27;20440;-37
2022/03/01 02:13:49;;;;;;;16.60;11.07;;;;;;;0.42;96.99;97489.84;5158176;27;20946;-36
2022/03/01 02:16:18;;;;;;;19.47;11.60;;;;;;;0.42;96.80;97497.69;5158395;27;20463;-36
2022/03/01 02:18:46;;;;;;;18.80;12.60;;;;;;;0.42;96.52;97500.31;5158472;27;20451;-36
2022/03/01 02:21:14;;;;;;;18.30;10.40;;;;;;;0.40;96.52;97485.56;5157958;27;20531;-37
2022/03/01 02:23:42;;;;;;;22.33;12.57;;;;;;;0.39;96.61;97502.25;5158007;27;20443;-36
2022/03/01 02:26:09;;;;;;;15.07;9.30;;;;;;;0.39;96.70;97494.41;5157969;27;20804;-37
2022/03/01 02:28:36;;;;;;;25.10;10.13;;;;;;;0.40;96.57;97488.19;5157841;27;20451;-37
2022/03/01 02:31:04;;;;;;;17.80;10.07;;;;;;;0.40;96.72;97495.22;5157825;27;20447;-38
2022/03/01 02:33:31;;;;;;;17.10;10.10;;;;;;;0.40;96.36;97496.03;5157716;27;20440;-37
2022/03/01 02:35:58;;;;;;;17.50;8.80;;;;;;;0.42;96.58;97497.69;5157718;27;20440;-37
2022/03/01 02:38:27;;;;;;;15.50;9.20;;;;;;;0.42;96.37;97492.47;5157983;27;20477;-37
2022/03/01 02:40:54;;;;;;;18.20;8.40;;;;;;;0.42;96.70;97489.84;5157618;27;20443;-37
2022/03/01 02:43:21;;;;;;;13.17;8.50;;;;;;;0.40;96.75;97497.84;5157590;27;20498;-37
2022/03/01 02:45:49;;;;;;;22.07;11.97;;;;;;;0.39;96.46;97489.19;5157521;27;20451;-37
2022/03/01 02:48:16;;;;;;;16.57;9.47;;;;;;;0.35;96.41;97477.41;5157521;27;20447;-37
2022/03/01 02:50:43;;;;;;;12.70;8.83;;;;;;;0.37;96.33;97480.69;5157706;27;20441;-37
2022/03/01 02:53:11;;;;;;;12.77;8.70;;;;;;;0.38;96.42;97484.91;5157718;27;20455;-37
2022/03/01 02:55:40;;;;;;;19.73;9.60;;;;;;;0.39;96.43;97483.94;5157754;27;20467;-37
2022/03/01 02:58:07;;;;;;;17.37;10.10;;;;;;;0.40;96.82;97488.19;5157271;27;20447;-37
2022/03/01 03:00:34;;;;;;;15.03;8.30;;;;;;;0.39;96.79;97486.56;5157631;27;20805;-37
2022/03/01 03:03:01;;;;;;;21.83;11.10;;;;;;;0.42;96.74;97484.63;5157414;27;20492;-37
2022/03/01 03:05:29;;;;;;;15.03;9.27;;;;;;;0.43;96.44;97491.47;5157437;27;20436;-37
2022/03/01 03:07:56;;;;;;;22.90;11.70;;;;;;;0.40;96.48;97488.19;5157147;27;20468;-37
2022/03/01 03:10:23;;;;;;;62.37;27.77;;;;;;;0.43;96.25;97487.09;5157287;27;20444;-38
2022/03/01 03:12:52;;;;;;;89.30;30.37;;;;;;;0.42;96.35;97490.66;5157343;27;20436;-37
2022/03/01 03:15:19;;;;;;;39.67;15.50;;;;;;;0.40;96.48;97488.19;5157808;27;20440;-37
2022/03/01 03:17:46;;;;;;;17.30;11.70;;;;;;;0.39;96.25;97483.94;5156882;27;20447;-37
2022/03/01 03:20:14;;;;;;;21.20;11.40;;;;;;;0.40;96.14;97477.75;5156867;27;20440;-37
2022/03/01 03:22:41;;;;;;;19.83;10.63;;;;;;;0.41;96.14;97483.81;5156729;27;20490;-38
2022/03/01 03:25:09;;;;;;;16.90;11.03;;;;;;;0.42;96.07;97472.38;5156791;27;20437;-37
2022/03/01 03:27:37;;;;;;;19.70;12.13;;;;;;;0.44;96.30;97478.25;5156624;27;20454;-38
2022/03/01 03:30:08;;;;;;;21.63;12.07;;;;;;;0.44;96.57;97477.44;5156702;27;20440;-37
2022/03/01 03:32:35;;;;;;;19.30;11.27;;;;;;;0.34;96.31;97467.09;5156882;27;20443;-36
2022/03/01 03:35:03;;;;;;;24.73;12.00;;;;;;;0.36;96.49;97471.19;5156935;27;20794;-37
2022/03/01 03:37:31;;;;;;;23.63;12.97;;;;;;;0.37;96.35;97472.03;5156815;27;20445;-37
2022/03/01 03:39:58;;;;;;;15.30;10.03;;;;;;;0.36;96.67;97476.41;5156479;27;20447;-37
2022/03/01 03:42:25;;;;;;;16.23;9.00;;;;;;;0.37;97.09;97466.81;5156455;27;20521;-37
2022/03/01 03:44:53;;;;;;;18.97;12.97;;;;;;;0.37;96.77;97475.44;5156372;27;20440;-37
2022/03/01 03:47:22;;;;;;;21.10;12.90;;;;;;;0.36;97.23;97481.63;5156366;27;20440;-37
2022/03/01 03:49:49;;;;;;;18.17;12.00;;;;;;;0.37;97.23;97470.22;5156244;27;20806;-37
2022/03/01 03:52:16;;;;;;;22.00;12.87;;;;;;;0.38;97.59;97466.63;5156587;27;20519;-37
2022/03/01 03:54:43;;;;;;;22.80;11.53;;;;;;;0.39;97.45;97468.28;5156249;27;20832;-37
2022/03/01 03:57:11;;;;;;;36.23;13.90;;;;;;;0.39;97.51;97465.66;5156481;27;20528;-37
2022/03/01 03:59:39;;;;;;;35.50;17.40;;;;;;;0.33;97.41;97458.44;5156067;27;20814;-36
2022/03/01 04:02:07;;;;;;;21.00;11.47;;;;;;;0.37;97.43;97467.63;5156269;27;20502;-37
2022/03/01 04:04:37;;;;;;;30.90;16.30;;;;;;;0.36;97.47;97473.81;5156072;27;20440;-37
2022/03/01 04:07:05;;;;;;;30.40;16.37;;;;;;;0.37;97.74;97457.16;5156955;27;20791;-37
2022/03/01 04:09:33;;;;;;;23.30;13.17;;;;;;;0.37;97.70;97467.63;5155775;27;20479;-36
2022/03/01 04:12:01;;;;;;;24.33;12.00;;;;;;;0.38;97.76;97469.25;5155822;27;20452;-36
2022/03/01 04:14:28;;;;;;;31.80;15.00;;;;;;;0.39;97.81;97468.28;5156075;27;20793;-37
2022/03/01 04:16:55;;;;;;;29.50;14.70;;;;;;;0.40;97.92;97464.69;5156061;27;20443;-36
2022/03/01 04:19:22;;;;;;;18.03;9.60;;;;;;;0.42;97.85;97469.75;5155702;27;20443;-37
2022/03/01 04:21:51;;;;;;;11.17;7.77;;;;;;;0.43;97.89;97465.34;5155696;27;20533;-36
2022/03/01 04:24:18;;;;;;;14.53;9.57;;;;;;;0.43;97.74;97455.75;5155915;27;20497;-37
2022/03/01 04:26:46;;;;;;;15.17;9.00;;;;;;;0.43;97.64;97455.75;5155590;27;20931;-37
2022/03/01 04:29:13;;;;;;;29.93;17.20;;;;;;;0.39;96.64;97460.44;5155186;27;20440;-36
2022/03/01 04:31:41;;;;;;;32.47;16.17;;;;;;;0.35;96.95;97459.13;5155470;27;20945;-37
2022/03/01 04:34:08;;;;;;;44.30;15.57;;;;;;;0.31;97.30;97454.34;5155800;27;20467;-37
2022/03/01 04:36:36;;;;;;;35.03;17.67;;;;;;;0.32;97.79;97458.59;5155715;27;20788;-36
2022/03/01 04:39:04;;;;;;;51.03;26.87;;;;;;;0.32;97.84;97459.44;5155741;27;20440;-36
2022/03/01 04:41:32;;;;;;;76.27;38.97;;;;;;;0.34;98.13;97452.22;5155289;27;20443;-37
2022/03/01 04:43:59;;;;;;;44.90;26.70;;;;;;;0.31;97.94;97463.00;5155592;27;20484;-37
2022/03/01 04:46:26;;;;;;;37.20;22.40;;;;;;;0.28;98.24;97454.66;5155342;27;20446;-37
2022/03/01 04:48:53;;;;;;;32.40;17.93;;;;;;;0.24;97.82;97456.78;5155232;27;20532;-38
2022/03/01 04:51:22;;;;;;;70.17;39.13;;;;;;;0.21;97.76;97451.84;5155263;27;20437;-38
2022/03/01 04:53:50;;;;;;;36.07;22.10;;;;;;;0.16;98.31;97446.28;5155543;27;20475;-37
2022/03/01 04:56:19;;;;;;;35.90;20.20;;;;;;;0.20;98.54;97460.66;5155363;27;20437;-36
2022/03/01 04:58:47;;;;;;;40.17;20.67;;;;;;;0.21;98.73;97451.84;5155221;27;20444;-36
2022/03/01 05:01:14;;;;;;;37.20;19.93;;;;;;;0.24;98.75;97446.31;5155438;27;20434;-37
2022/03/01 05:03:41;;;;;;;46.23;30.50;;;;;;;0.27;98.76;97461.69;5155092;27;20492;-37
2022/03/01 05:06:09;;;;;;;53.40;32.33;;;;;;;0.28;98.64;97463.31;5155009;27;20927;-36
2022/03/01 05:08:36;;;;;;;30.77;20.90;;;;;;;0.23;98.05;97469.97;5154851;27;20482;-36
2022/03/01 05:11:04;;;;;;;52.47;26.20;;;;;;;0.13;98.11;97480.50;5155325;27;20485;-36
2022/03/01 05:13:33;;;;;;;30.37;16.43;;;;;;;0.06;98.06;97469.06;5155043;27;20444;-36
2022/03/01 05:16:00;;;;;;;34.67;17.63;;;;;;;-0.09;97.84;97456.53;5156000;27;20432;-36
2022/03/01 05:18:27;;;;;;;62.67;32.27;;;;;;;-0.15;98.42;97464.16;5154873;27;20468;-36
2022/03/01 05:20:55;;;;;;;64.73;34.83;;;;;;;-0.18;99.31;97462.69;5154950;27;20440;-36
2022/03/01 05:23:22;;;;;;;39.90;14.60;;;;;;;-0.19;98.99;97470.66;5154759;27;20488;-37
2022/03/01 05:25:49;;;;;;;73.80;31.67;;;;;;;-0.24;99.01;97476.34;5154952;27;20436;-36
2022/03/01 05:28:17;;;;;;;50.77;22.83;;;;;;;-0.71;99.40;97453.97;5155098;27;20475;-36
2022/03/01 05:30:45;;;;;;;40.17;17.57;;;;;;;-0.18;100.00;97483.56;5155140;27;20838;-36
2022/03/01 05:33:13;;;;;;;34.07;19.60;;;;;;;-0.15;100.00;97492.88;5154944;27;20452;-37
2022/03/01 05:35:40;;;;;;;115.77;38.57;;;;;;;-0.13;99.50;97488.34;5154695;27;20468;-37
2022/03/01 05:38:09;;;;;;;130.37;49.87;;;;;;;-0.20;98.56;97482.91;5155020;27;20796;-36
2022/03/01 05:40:38;;;;;;;118.70;46.60;;;;;;;-0.36;99.45;97474.97;5156424;27;20801;-38
2022/03/01 05:43:07;;;;;;;34.67;18.27;;;;;;;-0.25;99.42;97492.97;5158906;27;20893;-37
2022/03/01 05:45:34;;;;;;;20.70;11.37;;;;;;;-0.21;99.88;97497.75;5158579;27;20504;-37
2022/03/01 05:48:02;;;;;;;12.47;8.40;;;;;;;-0.23;99.41;97504.09;5158580;27;20444;-36
2022/03/01 05:50:30;;;;;;;28.97;13.87;;;;;;;-0.32;99.32;97510.19;5158663;27;20436;-37
2022/03/01 05:52:57;;;;;;;24.07;12.77;;;;;;;-0.31;99.78;97512.66;5158486;27;20440;-37
2022/03/01 05:55:24;;;;;;;21.70;11.43;;;;;;;-0.33;99.42;97511.19;5158532;27;20436;-38
2022/03/01 05:57:51;;;;;;;37.83;17.50;;;;;;;-0.38;99.21;97516.03;5158700;27;20463;-36
2022/03/01 06:00:20;;;;;;;24.17;12.57;;;;;;;-0.45;99.60;97519.25;5158757;27;20444;-36
2022/03/01 06:02:50;;;;;;;80.43;32.13;;;;;;;-0.48;100.00;97518.72;5158296;27;20479;-36
2022/03/01 06:05:19;;;;;;;34.27;16.87;;;;;;;-0.63;99.92;97505.34;5158351;27;20923;-36
2022/03/01 06:07:47;;;;;;;72.33;31.10;;;;;;;-0.46;99.81;97514.97;5158128;27;20471;-36
2022/03/01 06:10:14;;;;;;;34.23;17.70;;;;;;;-0.49;100.00;97506.66;5158175;27;20428;-37
2022/03/01 06:12:42;;;;;;;20.90;11.50;;;;;;;-0.46;100.00;97522.81;5158532;27;20439;-37
2022/03/01 06:15:10;;;;;;;22.23;15.23;;;;;;;-0.50;100.00;97523.25;5158387;27;20466;-37
2022/03/01 06:17:38;;;;;;;18.63;12.17;;;;;;;-0.53;100.00;97521.75;5138681;27;20444;-38
2022/03/01 06:20:06;;;;;;;43.10;19.87;;;;;;;-0.53;100.00;97521.75;5137326;27;20444;-38
2022/03/01 06:22:35;;;;;;;26.07;14.40;;;;;;;-0.52;100.00;97515.56;5149348;27;20480;-37
2022/03/01 06:25:02;;;;;;;19.93;10.43;;;;;;;-0.52;100.00;97512.16;5157993;27;20443;-37
2022/03/01 06:27:30;;;;;;;26.57;10.37;;;;;;;-0.48;100.00;97514.31;5157847;27;20442;-36
2022/03/01 06:29:57;;;;;;;16.93;12.57;;;;;;;-0.34;100.00;97514.78;5158780;27;20451;-37
2022/03/01 06:32:24;;;;;;;20.27;11.30;;;;;;;-0.26;99.81;97525.25;5158621;27;20445;-37
2022/03/01 06:34:51;;;;;;;15.77;9.90;;;;;;;-0.26;99.28;97522.66;5158076;27;20448;-37
2022/03/01 06:37:18;;;;;;;29.27;15.43;;;;;;;-0.13;99.88;97523.13;5158593;27;20444;-36
2022/03/01 06:39:49;;;;;;;36.50;19.33;;;;;;;-0.05;99.57;97525.75;5158096;27;20877;-36
2022/03/01 06:42:16;;;;;;;18.70;11.10;;;;;;;0.09;98.60;97526.22;5156333;27;20919;-37
2022/03/01 06:44:44;;;;;;;16.57;10.87;;;;;;;-0.03;97.46;97523.00;5157405;27;20487;-36
2022/03/01 06:47:12;;;;;;;23.97;15.73;;;;;;;0.05;97.46;97524.88;5157539;27;20440;-36
2022/03/01 06:49:39;;;;;;;17.13;12.70;;;;;;;0.03;97.71;97516.38;5157506;27;20440;-36
2022/03/01 06:52:07;;;;;;;18.40;12.23;;;;;;;-0.04;97.74;97514.38;5157051;27;20448;-36
2022/03/01 06:54:35;;;;;;;16.30;9.73;;;;;;;0.08;97.54;97529.78;5157461;27;20926;-36
2022/03/01 06:57:04;;;;;;;16.67;12.93;;;;;;;0.15;96.92;97517.75;5157704;27;20436;-36
2022/03/01 06:59:31;;;;;;;18.43;12.23;;;;;;;0.20;97.54;97539.03;5157670;27;20472;-38
2022/03/01 07:01:59;;;;;;;29.33;19.80;;;;;;;0.29;97.23;97532.88;5157303;27;20437;-37
2022/03/01 07:04:26;;;;;;;23.57;14.57;;;;;;;0.34;97.06;97525.38;5157436;27;20579;-37
2022/03/01 07:06:56;;;;;;;12.50;8.90;;;;;;;0.43;97.02;97536.72;5157193;27;20443;-37
2022/03/01 07:09:24;;;;;;;21.40;10.20;;;;;;;0.54;97.14;97533.03;5156889;27;20479;-37
2022/03/01 07:11:51;;;;;;;12.77;7.97;;;;;;;0.61;96.55;97527.00;5157085;27;20436;-37
2022/03/01 07:14:20;;;;;;;13.27;9.23;;;;;;;0.71;95.93;97526.91;5156971;27;20927;-37
2022/03/01 07:16:47;;;;;;;16.30;9.77;;;;;;;0.77;95.96;97531.50;5157008;27;20444;-38
2022/03/01 07:19:14;;;;;;;19.20;9.80;;;;;;;0.77;95.31;97528.88;5157211;27;20468;-38
2022/03/01 07:21:42;;;;;;;51.30;21.90;;;;;;;0.81;94.93;97538.06;5156982;27;20436;-36
2022/03/01 07:24:09;;;;;;;25.70;14.40;;;;;;;0.87;94.93;97535.81;5157111;27;20484;-37
2022/03/01 07:26:36;;;;;;;25.27;12.47;;;;;;;0.92;95.07;97533.53;5156784;27;20908;-39
2022/03/01 07:29:03;;;;;;;20.23;11.73;;;;;;;0.97;94.50;97542.56;5156777;27;20441;-37
2022/03/01 07:31:32;;;;;;;34.70;16.20;;;;;;;1.00;94.24;97533.56;5156600;27;20443;-37
2022/03/01 07:33:59;;;;;;;38.93;18.93;;;;;;;1.05;94.02;97540.94;5156603;27;20951;-38
2022/03/01 07:36:27;;;;;;;24.07;13.43;;;;;;;1.08;93.76;97538.84;5156540;27;20447;-37
2022/03/01 07:38:54;;;;;;;24.80;14.30;;;;;;;1.11;93.26;97528.03;5156550;27;21049;-37
2022/03/01 07:41:21;;;;;;;34.00;14.10;;;;;;;1.06;91.60;97532.94;5156498;27;20440;-37
2022/03/01 07:43:49;;;;;;;31.53;13.83;;;;;;;1.08;91.84;97538.84;5156561;27;20484;-37
2022/03/01 07:46:16;;;;;;;25.67;12.63;;;;;;;1.10;91.95;97536.88;5156688;27;20831;-37
2022/03/01 07:48:45;;;;;;;32.40;18.20;;;;;;;1.13;91.79;97531.31;5156365;27;20436;-36
2022/03/01 07:51:12;;;;;;;28.57;14.20;;;;;;;1.07;91.85;97511.03;5156362;27;20471;-37
2022/03/01 07:53:39;;;;;;;17.93;11.53;;;;;;;1.30;91.82;97526.16;5156262;27;20432;-37
2022/03/01 07:56:07;;;;;;;22.90;14.70;;;;;;;1.34;90.88;97533.53;5156443;27;20930;-37
2022/03/01 07:58:34;;;;;;;15.83;9.37;;;;;;;1.36;90.68;97525.50;5156100;27;20440;-37
2022/03/01 08:01:02;;;;;;;14.60;9.53;;;;;;;1.29;90.56;97520.09;5156836;27;20447;-38
2022/03/01 08:03:29;;;;;;;21.10;11.27;;;;;;;1.47;90.75;97533.06;5155018;27;20496;-37
2022/03/01 08:05:58;;;;;;;16.70;10.43;;;;;;;1.61;90.64;97519.34;5156136;27;20444;-37
2022/03/01 08:08:27;;;;;;;15.67;9.60;;;;;;;1.79;89.54;97527.06;5155742;27;20472;-37
2022/03/01 08:10:54;;;;;;;15.90;10.40;;;;;;;2.01;88.82;97528.19;5156053;27;20794;-37
2022/03/01 08:13:21;;;;;;;39.40;19.97;;;;;;;2.16;88.25;97532.78;5156008;27;20443;-37
2022/03/01 08:15:49;;;;;;;36.63;17.40;;;;;;;2.24;87.29;97538.03;5155587;27;20444;-37
2022/03/01 08:18:16;;;;;;;37.97;19.20;;;;;;;2.36;86.60;97538.50;5155639;27;20967;-37
2022/03/01 08:20:43;;;;;;;31.37;17.23;;;;;;;2.40;85.54;97539.78;5155669;27;20436;-37
2022/03/01 08:23:12;;;;;;;27.77;14.83;;;;;;;2.37;82.75;97537.53;5155926;27;20814;-37
2022/03/01 08:25:39;;;;;;;23.87;12.17;;;;;;;2.19;82.58;97535.06;5155955;27;20450;-37
2022/03/01 08:28:06;;;;;;;23.87;15.30;;;;;;;2.11;82.83;97545.53;5154817;27;20440;-38
2022/03/01 08:30:35;;;;;;;21.87;10.60;;;;;;;1.94;83.02;97535.06;5154516;27;20992;-37
2022/03/01 08:33:02;;;;;;;19.37;10.73;;;;;;;1.83;82.71;97543.25;5155478;27;20451;-39
2022/03/01 08:35:32;;;;;;;17.07;9.93;;;;;;;1.73;82.69;97532.13;5154230;27;20432;-40
2022/03/01 08:38:02;;;;;;;15.73;10.80;;;;;;;1.81;83.39;97526.91;5154712;27;20848;-40
2022/03/01 08:40:32;;;;;;;16.13;8.90;;;;;;;1.79;83.98;97515.75;5153075;27;20448;-40
2022/03/01 08:42:59;;;;;;;18.27;10.30;;;;;;;2.07;83.95;97539.00;5154651;27;20445;-37
2022/03/01 08:45:27;;;;;;;18.37;10.90;;;;;;;1.99;82.66;97517.06;5155593;27;20804;-37
2022/03/01 08:47:54;;;;;;;13.43;10.53;;;;;;;2.18;81.95;97549.16;5155615;27;20471;-37
2022/03/01 08:50:22;;;;;;;26.70;12.17;;;;;;;2.14;82.09;97526.88;5155402;27;20436;-37
2022/03/01 08:52:50;;;;;;;11.93;8.93;;;;;;;2.11;81.68;97527.19;5155000;27;20445;-37
2022/03/01 08:55:17;;;;;;;14.80;9.77;;;;;;;2.08;81.18;97543.25;5155352;27;20504;-38
2022/03/01 08:57:46;;;;;;;30.73;15.80;;;;;;;2.01;81.33;97541.28;5155034;27;20436;-37
2022/03/01 09:00:16;;;;;;;17.30;11.87;;;;;;;2.05;81.88;97539.16;5155039;27;20440;-37
2022/03/01 09:02:43;;;;;;;63.47;26.73;;;;;;;2.15;81.31;97546.84;5155356;27;20466;-37
2022/03/01 09:05:10;;;;;;;34.43;17.50;;;;;;;2.18;81.16;97541.28;5154854;27;20487;-38
2022/03/01 09:07:38;;;;;;;23.13;13.40;;;;;;;2.31;81.80;97546.84;5154832;27;20819;-37
2022/03/01 09:10:07;;;;;;;27.97;12.17;;;;;;;2.27;81.06;97523.75;5155228;27;20923;-37
2022/03/01 09:12:34;;;;;;;15.87;9.77;;;;;;;2.32;81.00;97543.22;5154966;27;20451;-38
2022/03/01 09:15:03;;;;;;;16.10;8.73;;;;;;;2.40;80.26;97545.84;5157160;27;20450;-37
2022/03/01 09:17:30;;;;;;;18.33;11.10;;;;;;;2.48;80.39;97546.84;5159590;27;20440;-38
2022/03/01 09:19:58;;;;;;;22.33;15.63;;;;;;;2.60;80.05;97545.47;5159224;27;20443;-37
2022/03/01 09:22:27;;;;;;;18.43;9.70;;;;;;;2.58;79.15;97547.44;5159091;27;20440;-37
2022/03/01 09:24:54;;;;;;;16.00;10.30;;;;;;;2.61;78.69;97547.94;5159403;27;20491;-37
2022/03/01 09:27:22;;;;;;;24.63;13.37;;;;;;;2.61;78.87;97552.38;5159005;27;20440;-37
2022/03/01 09:29:49;;;;;;;14.63;9.60;;;;;;;2.60;78.55;97561.22;5159370;27;20516;-37
2022/03/01 09:32:18;;;;;;;21.80;8.87;;;;;;;2.55;78.95;97553.03;5158989;27;20443;-37
2022/03/01 09:34:46;;;;;;;32.23;16.77;;;;;;;2.41;78.72;97550.13;5158965;27;20448;-37
2022/03/01 09:37:13;;;;;;;18.13;11.63;;;;;;;2.36;79.87;97539.28;5158840;27;20439;-37
2022/03/01 09:39:40;;;;;;;14.20;9.90;;;;;;;2.28;79.58;97539.34;5158785;27;20780;-37
2022/03/01 09:42:09;;;;;;;19.47;11.60;;;;;;;2.26;79.49;97551.78;5158729;27;20440;-37
2022/03/01 09:44:37;;;;;;;17.03;10.77;;;;;;;2.23;79.95;97544.22;5158891;27;20550;-37
2022/03/01 09:47:04;;;;;;;12.33;7.27;;;;;;;1.99;79.80;97530.16;5158627;27;20439;-37
2022/03/01 09:49:33;;;;;;;12.53;9.43;;;;;;;2.29;80.16;97540.94;5158618;27;20475;-37
2022/03/01 09:52:00;;;;;;;23.57;15.97;;;;;;;2.30;80.00;97550.44;5158853;27;20447;-37
2022/03/01 09:54:28;;;;;;;16.50;11.33;;;;;;;2.35;80.07;97547.34;5158552;27;20436;-37
2022/03/01 09:56:55;;;;;;;25.40;13.73;;;;;;;2.28;79.39;97539.34;5158431;27;20436;-37
2022/03/01 09:59:23;;;;;;;17.90;8.80;;;;;;;2.25;79.07;97537.03;5158426;27;20497;-37
2022/03/01 10:01:50;;;;;;;21.60;14.87;;;;;;;2.21;80.06;97538.34;5158649;27;20440;-37
2022/03/01 10:04:18;;;;;;;19.70;11.50;;;;;;;2.18;80.52;97533.44;5158591;27;20483;-37
2022/03/01 10:06:48;;;;;;;58.80;25.57;;;;;;;2.17;80.40;97539.66;5158682;27;20802;-38
2022/03/01 10:09:17;;;;;;;17.30;10.60;;;;;;;2.12;79.36;97536.72;5158096;27;20836;-37
2022/03/01 10:11:45;;;;;;;25.37;11.27;;;;;;;2.04;81.33;97530.50;5158190;27;20856;-38
2022/03/01 10:14:14;;;;;;;17.83;9.90;;;;;;;2.08;81.24;97524.91;5158147;27;20799;-37
2022/03/01 10:16:43;;;;;;;12.83;9.67;;;;;;;2.07;82.07;97529.34;5158396;27;20467;-38
2022/03/01 10:19:15;;;;;;;19.60;10.77;;;;;;;2.09;81.26;97532.63;5157959;27;20443;-38
2022/03/01 10:21:44;;;;;;;25.33;16.37;;;;;;;2.18;81.23;97523.75;5158055;27;20942;-37
2022/03/01 10:24:13;;;;;;;23.93;14.17;;;;;;;2.15;81.59;97531.13;5157798;27;20486;-38
2022/03/01 10:26:41;;;;;;;45.43;25.33;;;;;;;2.10;81.65;97521.16;5157454;27;20528;-38
2022/03/01 10:29:08;;;;;;;23.33;10.40;;;;;;;1.94;81.00;97510.69;5157845;27;20943;-38
2022/03/01 10:31:36;;;;;;;18.00;10.63;;;;;;;1.91;81.60;97514.44;5157832;27;20443;-37
2022/03/01 10:34:06;;;;;;;19.10;12.77;;;;;;;1.71;82.12;97497.44;5157712;27;20443;-38
2022/03/01 10:36:35;;;;;;;21.63;11.80;;;;;;;1.87;82.54;97514.94;5158302;27;20432;-37
2022/03/01 10:39:05;;;;;;;28.33;13.20;;;;;;;1.79;83.00;97513.16;5157652;27;20444;-38
2022/03/01 10:41:35;;;;;;;26.60;17.90;;;;;;;1.72;83.65;97499.88;5158210;27;20815;-38
2022/03/01 10:44:03;;;;;;;24.20;13.00;;;;;;;1.89;82.53;97515.59;5157795;27;20476;-38
2022/03/01 10:46:32;;;;;;;26.03;14.27;;;;;;;1.95;82.39;97505.28;5157561;27;20475;-38
2022/03/01 10:49:02;;;;;;;23.53;12.60;;;;;;;1.98;82.35;97504.13;5157509;27;20437;-38
2022/03/01 10:51:30;;;;;;;17.00;11.87;;;;;;;2.01;82.62;97494.16;5157471;27;20429;-38
2022/03/01 10:54:00;;;;;;;18.83;11.90;;;;;;;2.07;82.78;97503.16;5157347;27;20435;-38
2022/03/01 10:56:38;;;;;;;31.83;18.57;;;;;;;2.16;82.93;97498.72;5157337;27;20478;-37
2022/03/01 10:59:06;;;;;;;27.27;14.10;;;;;;;2.11;82.74;97498.38;5157311;27;20424;-38
2022/03/01 11:01:34;;;;;;;22.37;14.00;;;;;;;2.09;82.74;97500.34;5157606;27;20887;-37
2022/03/01 11:04:03;;;;;;;16.77;12.50;;;;;;;2.00;82.19;97497.75;5157105;27;20485;-37
2022/03/01 11:06:30;;;;;;;17.27;10.93;;;;;;;1.80;82.56;97506.91;5157256;27;20443;-37
2022/03/01 11:09:01;;;;;;;16.30;11.27;;;;;;;1.68;83.79;97497.72;5156968;27;20839;-36
2022/03/01 11:11:32;;;;;;;18.93;12.40;;;;;;;1.62;84.29;97500.03;5157131;27;20515;-37
2022/03/01 11:14:03;;;;;;;24.77;14.70;;;;;;;1.67;85.13;97496.09;5157364;27;20420;-36
2022/03/01 11:16:43;;;;;;;19.60;12.17;;;;;;;1.71;84.86;97497.44;5156938;27;20976;-37
2022/03/01 11:19:26;;;;;;;16.77;10.30;;;;;;;1.74;84.75;97492.69;5157203;27;20428;-36
2022/03/01 11:21:56;;;;;;;23.40;12.17;;;;;;;1.77;84.41;97496.78;5156934;27;20425;-36
2022/03/01 11:24:24;;;;;;;20.90;13.30;;;;;;;1.72;84.07;97499.88;5157069;27;20528;-36
2022/03/01 11:26:51;;;;;;;29.17;18.10;;;;;;;1.70;83.91;97487.91;5156737;27;20941;-37
2022/03/01 11:29:20;;;;;;;18.57;13.20;;;;;;;1.66;84.18;97486.59;5156955;27;20471;-36
2022/03/01 11:31:58;;;;;;;20.33;13.60;;;;;;;1.58;84.40;97484.81;5156704;27;20436;-37